Terminal Aerodrome Forecast
Issued by NWS Twin Cities, MN

Home | Current Version | Previous Version | Text Only | Print | Product List | Glossary Off
Versions: 1 2 3 4 5 6 7 8 9 10 11 12 13 14 15 16 17 18

000
FTUS43 KMPX 251135
TAFEAU
TAF
KEAU 251135Z 2512/2612 16008KT P6SM VCSH OVC015
      TEMPO 2512/2516 4SM -SHRA BR OVC007
     FM252000 25012G20KT P6SM OVC050
     FM260400 26012KT P6SM VCSH OVC025=

USA.gov is the U.S. government's official web portal to all federal, state and local government web resources and services.